Time;durP1;ratioP1;P1;durP2;ratioP2;P2;SDS_P1;SDS_P2;PMS_P1;PMS_P2;Temp;Humidity;BMP_temperature;BMP_pressure;BME280_temperature;BME280_humidity;BME280_pressure;Samples;Min_cycle;Max_cycle;Signal;HPM_P1;HPM_P2
2022/01/28 05:29:15;;;;;;;;;48.00;39.25;;;;;6.47;86.68;102752.00;5109807;27;45381;-53
2022/01/28 05:31:41;;;;;;;;;48.75;39.75;;;;;6.62;86.03;102752.25;5093173;27;45472;-50
2022/01/28 05:34:06;;;;;;;;;46.25;38.75;;;;;6.74;85.73;102754.16;5092836;27;45485;-52
2022/01/28 05:36:31;;;;;;;;;45.75;38.75;;;;;6.86;85.20;102764.84;5076247;27;45588;-49
2022/01/28 05:38:57;;;;;;;;;36.75;33.25;;;;;6.93;84.79;102760.59;5072397;27;45568;-50
2022/01/28 05:41:22;;;;;;;;;47.25;39.25;;;;;7.08;84.24;102766.03;5072024;27;45422;-51
2022/01/28 05:43:47;;;;;;;;;45.50;38.50;;;;;7.09;83.79;102751.19;5071354;28;45442;-51
2022/01/28 05:46:13;;;;;;;;;36.75;33.75;;;;;7.24;83.61;102766.22;5072640;27;45451;-52
2022/01/28 05:48:39;;;;;;;;;41.25;37.00;;;;;7.34;83.35;102775.97;5072356;27;46171;-52
2022/01/28 05:51:04;;;;;;;;;43.00;34.25;;;;;7.40;83.21;102775.16;5072461;27;45416;-49
2022/01/28 05:53:29;;;;;;;;;46.50;38.00;;;;;7.45;82.38;102774.38;5072119;27;45365;-52
2022/01/28 05:55:54;;;;;;;;;37.00;36.50;;;;;7.50;82.48;102772.69;5072354;28;45381;-51
2022/01/28 05:58:20;;;;;;;;;44.00;39.75;;;;;7.61;81.85;102788.53;5070965;28;46424;-52
2022/01/28 06:00:45;;;;;;;;;40.75;35.00;;;;;7.67;81.87;102798.19;5072190;28;45418;-49
2022/01/28 06:03:11;;;;;;;;;44.00;38.50;;;;;7.72;81.72;102804.38;5072137;28;45334;-48
2022/01/28 06:05:36;;;;;;;;;39.75;37.50;;;;;7.80;81.32;102804.47;5071149;28;45349;-51
2022/01/28 06:08:02;;;;;;;;;36.00;33.75;;;;;7.80;81.07;102805.34;5071671;28;45947;-54
2022/01/28 06:10:27;;;;;;;;;44.25;32.00;;;;;7.84;81.02;102806.25;5072023;28;45731;-51
2022/01/28 06:12:53;;;;;;;;;39.75;35.25;;;;;7.89;80.79;102810.69;5072112;28;45907;-52
2022/01/28 06:15:18;;;;;;;;;38.75;33.75;;;;;7.95;80.44;102810.75;5072034;28;45386;-53
2022/01/28 06:17:44;;;;;;;;;42.50;36.50;;;;;7.98;79.87;102809.91;5071914;28;45461;-50
2022/01/28 06:20:12;;;;;;;;;40.75;36.00;;;;;8.03;79.83;102812.56;5071852;28;45460;-51
2022/01/28 06:22:39;;;;;;;;;39.25;37.25;;;;;8.06;79.78;102807.34;5072027;28;45379;-51
2022/01/28 06:25:06;;;;;;;;;41.75;34.75;;;;;8.08;79.73;102803.88;5072022;28;45476;-49
2022/01/28 06:27:31;;;;;;;;;41.25;36.75;;;;;8.09;79.47;102803.03;5071639;27;46178;-49
2022/01/28 06:29:56;;;;;;;;;50.50;37.00;;;;;8.02;79.58;102795.09;5071563;28;45380;-51
2022/01/28 06:32:22;;;;;;;;;45.25;39.25;;;;;8.07;79.27;102799.53;5071725;28;45414;-52
2022/01/28 06:34:47;;;;;;;;;40.00;35.50;;;;;8.16;79.72;102815.34;5071563;28;45663;-52
2022/01/28 06:37:12;;;;;;;;;43.50;34.50;;;;;8.14;78.62;102805.69;5071572;28;46306;-49
2022/01/28 06:39:38;;;;;;;;;42.50;35.75;;;;;8.19;79.02;102809.25;5063582;28;45502;-52
2022/01/28 06:42:03;;;;;;;;;49.25;43.75;;;;;8.21;78.61;102807.53;5058312;28;45555;-56
2022/01/28 06:44:30;;;;;;;;;53.50;43.25;;;;;8.17;78.94;102806.63;5058095;27;45620;-49
2022/01/28 06:46:55;;;;;;;;;56.00;45.50;;;;;8.19;78.39;102802.28;5058043;28;46179;-50
2022/01/28 06:49:21;;;;;;;;;61.00;49.00;;;;;8.19;79.19;102809.25;5057914;28;45441;-52
2022/01/28 06:51:46;;;;;;;;;61.00;49.25;;;;;8.12;78.57;102812.69;5057864;28;45588;-49
2022/01/28 06:54:12;;;;;;;;;62.00;49.00;;;;;8.10;78.29;102812.66;5058089;28;45458;-50
2022/01/28 06:56:37;;;;;;;;;61.00;49.50;;;;;8.10;78.91;102817.03;5057584;28;45423;-50
2022/01/28 06:59:03;;;;;;;;;62.50;51.25;;;;;8.12;78.68;102821.41;5058035;28;45396;-47
2022/01/28 07:01:28;;;;;;;;;61.25;49.25;;;;;8.14;78.63;102817.09;5057829;28;45437;-50
2022/01/28 07:03:54;;;;;;;;;60.50;46.75;;;;;8.12;79.02;102818.81;5057859;28;45359;-51
2022/01/28 07:06:20;;;;;;;;;60.75;48.25;;;;;8.17;78.85;102827.59;5057517;28;46124;-52
2022/01/28 07:08:45;;;;;;;;;57.50;47.25;;;;;8.15;78.46;102833.69;5057709;28;45478;-52
2022/01/28 07:11:11;;;;;;;;;63.50;51.00;;;;;8.13;78.15;102830.16;5057833;28;45434;-47
2022/01/28 07:13:36;;;;;;;;;47.75;38.75;;;;;8.11;78.34;102824.91;5057846;28;45347;-48
2022/01/28 07:16:02;;;;;;;;;62.75;51.25;;;;;8.12;78.00;102828.41;5057303;28;47349;-55
2022/01/28 07:18:28;;;;;;;;;60.50;50.25;;;;;8.07;78.21;102828.34;5057508;28;45486;-49
2022/01/28 07:20:54;;;;;;;;;57.00;48.50;;;;;8.11;77.99;102838.03;5057626;28;45382;-53
2022/01/28 07:23:20;;;;;;;;;65.25;54.00;;;;;8.09;77.72;102826.63;5056093;28;45506;-50
2022/01/28 07:25:45;;;;;;;;;62.25;50.75;;;;;8.05;77.94;102835.31;5057432;28;45471;-52
2022/01/28 07:28:10;;;;;;;;;57.50;47.50;;;;;8.08;77.85;102845.81;5056947;28;45439;-51
2022/01/28 07:30:36;;;;;;;;;65.25;51.25;;;;;8.07;77.57;102841.44;5057604;28;45990;-53
2022/01/28 07:33:05;;;;;;;;;61.00;48.75;;;;;8.09;77.84;102842.38;5057339;28;45471;-51
2022/01/28 07:35:31;;;;;;;;;58.75;47.75;;;;;8.08;77.62;102845.81;5072721;28;46971;-52
2022/01/28 07:37:56;;;;;;;;;67.25;51.00;;;;;8.10;77.79;102851.97;5056946;28;45355;-56
2022/01/28 07:40:21;;;;;;;;;60.75;49.75;;;;;8.11;78.40;102853.75;5056986;28;45543;-56
2022/01/28 07:42:47;;;;;;;;;59.50;49.00;;;;;8.11;77.34;102863.31;5057028;28;45362;-56
2022/01/28 07:45:16;;;;;;;;;60.50;46.00;;;;;8.11;77.63;102877.34;5056720;28;45384;-56
2022/01/28 07:47:43;;;;;;;;;65.00;52.00;;;;;8.10;77.65;102878.19;5057028;28;45442;-55
2022/01/28 07:50:10;;;;;;;;;61.00;48.50;;;;;8.05;77.16;102864.13;5056808;28;45420;-56
2022/01/28 07:52:36;;;;;;;;;60.75;50.25;;;;;8.10;77.17;102878.19;5056225;28;45518;-56
2022/01/28 07:55:02;;;;;;;;;64.25;50.75;;;;;8.06;77.24;102870.25;5056741;28;45652;-56
2022/01/28 07:57:27;;;;;;;;;55.00;44.75;;;;;7.95;77.45;102854.41;5057023;28;45480;-54
2022/01/28 07:59:53;;;;;;;;;54.25;46.00;;;;;8.10;77.62;102883.41;5056829;28;45455;-56
2022/01/28 08:02:18;;;;;;;;;64.25;50.00;;;;;8.14;77.47;102894.81;5056942;28;45420;-56
2022/01/28 08:04:43;;;;;;;;;62.50;48.25;;;;;8.13;78.00;102893.06;5056917;28;45472;-56
2022/01/28 08:07:09;;;;;;;;;64.75;52.50;;;;;8.13;77.32;102899.19;5056609;28;45472;-52
2022/01/28 08:09:34;;;;;;;;;56.50;47.50;;;;;8.17;77.34;102906.22;5057029;28;45791;-52
2022/01/28 08:12:00;;;;;;;;;55.75;45.00;;;;;8.22;77.52;102915.88;5056964;28;45413;-53
2022/01/28 08:14:26;;;;;;;;;57.75;46.00;;;;;8.21;77.60;102901.88;5072075;28;45827;-53
2022/01/28 08:16:51;;;;;;;;;61.75;47.00;;;;;8.27;76.86;102912.44;5056905;28;45435;-52
2022/01/28 08:19:17;;;;;;;;;58.00;48.00;;;;;8.27;76.83;102903.69;5056735;28;45489;-52
2022/01/28 08:21:42;;;;;;;;;59.75;49.75;;;;;8.29;76.72;102895.00;5072285;28;45620;-54
2022/01/28 08:24:07;;;;;;;;;57.25;47.50;;;;;8.29;76.27;102900.22;5056332;28;45456;-52
2022/01/28 08:26:33;;;;;;;;;64.50;52.25;;;;;8.27;76.67;102895.84;5056471;28;45446;-54
2022/01/28 08:28:58;;;;;;;;;58.25;48.00;;;;;8.33;76.77;102911.66;5056325;28;45432;-48
2022/01/28 08:31:23;;;;;;;;;58.50;47.75;;;;;8.37;76.23;102911.69;5056484;28;45429;-53
2022/01/28 08:33:49;;;;;;;;;58.50;47.25;;;;;8.39;76.58;102904.75;5056313;28;45520;-53
2022/01/28 08:36:14;;;;;;;;;57.75;49.25;;;;;8.38;76.86;102916.09;5056137;28;45522;-52
2022/01/28 08:38:44;;;;;;;;;63.75;50.00;;;;;8.39;76.28;102922.25;5056447;28;45422;-47
2022/01/28 08:41:12;;;;;;;;;58.75;45.50;;;;;8.43;75.92;102926.63;5056494;28;45409;-51
2022/01/28 08:43:39;;;;;;;;;55.00;43.25;;;;;8.43;76.14;102924.00;5056069;28;45482;-50
2022/01/28 08:46:04;;;;;;;;;65.25;51.00;;;;;8.46;76.02;102931.91;5055999;28;45334;-49
2022/01/28 08:48:30;;;;;;;;;67.50;52.50;;;;;8.45;75.85;102937.16;5056293;28;45486;-51
2022/01/28 08:50:55;;;;;;;;;54.00;46.50;;;;;8.46;75.77;102947.66;5056157;28;45373;-50
2022/01/28 08:53:21;;;;;;;;;60.50;50.25;;;;;8.43;75.85;102947.63;5055012;28;46304;-51
2022/01/28 08:55:46;;;;;;;;;60.25;47.00;;;;;8.43;75.42;102950.22;5056058;28;45389;-51
2022/01/28 08:58:11;;;;;;;;;55.00;46.25;;;;;8.44;75.23;102948.53;5056074;28;45378;-52
2022/01/28 09:00:38;;;;;;;;;56.00;43.75;;;;;8.43;74.86;102960.72;5056145;28;45589;-53
2022/01/28 09:03:04;;;;;;;;;54.75;46.25;;;;;8.40;74.85;102972.06;5055653;28;45528;-53
2022/01/28 09:05:29;;;;;;;;;46.25;39.50;;;;;8.38;74.42;102962.38;5055797;28;45558;-52
2022/01/28 09:07:55;;;;;;;;;41.75;37.50;;;;;8.31;73.92;102964.06;5055673;28;45493;-50
2022/01/28 09:10:29;;;;;;;;;45.25;34.00;;;;;8.37;72.37;102978.97;5055800;28;45550;-52
2022/01/28 09:15:30;;;;;;;;;33.00;31.00;;;;;8.36;72.90;102977.25;5055659;28;45577;-49
2022/01/28 09:17:57;;;;;;;;;42.75;38.50;;;;;8.40;72.84;102981.66;5055796;28;45394;-51
2022/01/28 09:20:22;;;;;;;;;36.00;34.00;;;;;8.39;72.40;102974.69;5055918;28;45597;-52
2022/01/28 09:22:48;;;;;;;;;32.75;31.50;;;;;8.36;71.89;102978.09;5055670;28;45470;-50
2022/01/28 09:25:13;;;;;;;;;42.00;31.25;;;;;8.32;73.20;102971.06;5055824;28;45406;-49
2022/01/28 09:27:39;;;;;;;;;40.25;35.75;;;;;8.33;72.82;102966.72;5055446;28;45686;-52
2022/01/28 09:30:04;;;;;;;;;36.00;32.00;;;;;8.35;71.62;102968.47;5055584;28;45410;-52
2022/01/28 09:32:30;;;;;;;;;33.50;29.25;;;;;8.38;71.74;102968.53;5055593;28;45445;-51
2022/01/28 09:34:55;;;;;;;;;36.50;33.25;;;;;8.42;71.56;102979.09;5055472;28;45407;-50
2022/01/28 09:37:20;;;;;;;;;35.00;30.75;;;;;8.41;71.60;102988.69;5055820;28;45321;-51
2022/01/28 09:39:46;;;;;;;;;40.00;36.75;;;;;8.38;71.10;102993.84;5055502;28;45328;-51
2022/01/28 09:42:15;;;;;;;;;32.75;29.00;;;;;8.21;72.00;102959.56;5055132;28;46397;-54
2022/01/28 09:44:42;;;;;;;;;44.00;37.50;;;;;8.38;72.92;102976.41;5055223;28;45537;-49
2022/01/28 09:47:10;;;;;;;;;28.25;26.50;;;;;8.39;71.14;102980.78;5055476;28;45541;-48
2022/01/28 09:49:37;;;;;;;;;29.00;29.00;;;;;8.42;71.54;102990.44;5054167;28;45368;-51
2022/01/28 09:52:03;;;;;;;;;36.50;35.75;;;;;8.44;71.85;102982.63;5055117;28;46572;-52
2022/01/28 09:54:29;;;;;;;;;33.00;27.75;;;;;8.46;71.69;102978.25;5055263;28;45528;-51
2022/01/28 09:56:55;;;;;;;;;38.00;31.00;;;;;8.50;70.96;102973.06;5055044;28;45446;-48
2022/01/28 09:59:20;;;;;;;;;33.00;29.25;;;;;8.59;71.14;102980.13;5055201;28;45390;-53
2022/01/28 10:01:50;;;;;;;;;37.75;32.75;;;;;8.57;70.84;102977.53;5055172;28;45436;-52
2022/01/28 10:04:18;;;;;;;;;27.25;24.50;;;;;8.60;71.25;102980.16;5054849;28;45406;-52
2022/01/28 10:06:45;;;;;;;;;39.25;35.50;;;;;8.62;71.13;102978.47;5055053;28;45433;-49
2022/01/28 10:09:16;;;;;;;;;30.25;27.75;;;;;8.63;70.87;102988.06;5054858;28;45439;-49
2022/01/28 10:11:44;;;;;;;;;33.25;29.50;;;;;8.60;70.16;102988.03;5054751;28;45485;-53
2022/01/28 10:14:17;;;;;;;;;33.75;33.25;;;;;8.56;70.62;102990.59;5070882;27;45552;-53
2022/01/28 10:16:55;;;;;;;;;44.25;35.75;;;;;8.42;70.88;102973.84;5058559;28;45361;-52
2022/01/28 10:19:24;;;;;;;;;35.50;30.50;;;;;8.56;71.07;102994.09;5056885;28;45604;-53
2022/01/28 10:21:50;;;;;;;;;33.00;30.00;;;;;8.53;70.68;102993.19;5058126;28;46675;-52
2022/01/28 10:24:20;;;;;;;;;35.75;33.00;;;;;8.43;70.98;102981.69;5058131;28;45378;-51
2022/01/28 10:26:59;;;;;;;;;32.00;31.25;;;;;8.49;70.79;102992.28;5058440;28;45529;-49
2022/01/28 10:29:33;;;;;;;;;30.00;28.50;;;;;8.50;70.93;102999.28;5058228;28;45601;-49
2022/01/28 10:31:59;;;;;;;;;29.00;29.00;;;;;8.47;71.46;102998.38;5058107;28;45449;-49
2022/01/28 10:34:32;;;;;;;;;33.75;31.00;;;;;8.46;71.35;102997.47;5057828;28;45409;-53
2022/01/28 10:37:06;;;;;;;;;38.25;29.75;;;;;8.44;71.25;103004.47;5057764;28;45456;-51
2022/01/28 10:39:38;;;;;;;;;39.75;33.25;;;;;8.46;71.00;102997.47;5058093;28;45426;-51
2022/01/28 10:42:04;;;;;;;;;34.50;28.75;;;;;8.45;70.93;102992.22;5057589;28;46589;-55
2022/01/28 10:44:31;;;;;;;;;38.00;31.50;;;;;8.50;71.18;102999.28;5057850;28;45461;-51
2022/01/28 10:46:59;;;;;;;;;31.50;26.50;;;;;8.45;70.87;103002.72;5058284;28;45421;-51
2022/01/28 10:49:31;;;;;;;;;27.00;25.25;;;;;8.42;70.24;103016.66;5057779;28;45683;-48
2022/01/28 10:52:04;;;;;;;;;26.00;25.25;;;;;8.43;70.45;103017.53;5057677;28;45487;-49
2022/01/28 10:54:29;;;;;;;;;24.25;23.50;;;;;8.37;70.13;103020.94;5057573;28;45480;-52
2022/01/28 10:56:59;;;;;;;;;28.00;27.75;;;;;8.39;70.81;103024.50;5057555;28;45413;-51
2022/01/28 10:59:28;;;;;;;;;31.25;30.50;;;;;8.42;69.59;103027.16;5057447;28;45496;-49
2022/01/28 11:01:54;;;;;;;;;30.00;28.75;;;;;8.43;69.66;103025.41;5057302;28;45547;-53
2022/01/28 11:04:21;;;;;;;;;33.75;26.00;;;;;8.50;69.21;103025.50;5057525;28;45467;-51
2022/01/28 11:06:48;;;;;;;;;25.75;24.25;;;;;8.56;69.70;103019.47;5057303;28;45428;-53
2022/01/28 11:09:16;;;;;;;;;30.50;26.75;;;;;8.61;69.09;103023.00;5057547;28;45385;-50
2022/01/28 11:11:42;;;;;;;;;27.25;27.00;;;;;8.60;69.22;103032.63;5057299;27;45383;-50
2022/01/28 11:14:08;;;;;;;;;35.25;29.50;;;;;8.62;69.43;103028.28;5069041;27;45369;-50
2022/01/28 11:16:34;;;;;;;;;30.75;29.00;;;;;8.51;69.37;103021.13;5036817;28;45941;-50
2022/01/28 11:19:00;;;;;;;;;33.00;30.00;;;;;8.52;69.29;103015.06;5036504;28;45640;-51
2022/01/28 11:21:47;;;;;;;;;25.00;25.00;;;;;8.49;69.82;103008.03;5036307;28;46226;-54
2022/01/28 11:24:18;;;;;;;;;32.25;32.00;;;;;8.57;69.73;103011.63;5036364;28;45454;-53
2022/01/28 11:27:22;;;;;;;;;34.50;27.75;;;;;8.58;69.58;103009.88;5036508;28;45519;-55
2022/01/28 11:29:48;;;;;;;;;27.25;25.25;;;;;8.56;69.97;103009.84;5033927;28;45484;-49
2022/01/28 11:32:17;;;;;;;;;38.00;32.00;;;;;8.61;69.47;103012.53;5034012;28;46239;-50
2022/01/28 11:34:57;;;;;;;;;28.50;24.00;;;;;8.68;70.00;103013.47;5036628;28;45432;-53
2022/01/28 11:37:31;;;;;;;;;58.00;49.00;;;;;8.70;69.54;103011.75;5036212;28;45545;-51
2022/01/28 11:40:23;;;;;;;;;32.00;30.25;;;;;8.69;69.86;103000.38;5036320;28;45560;-49
2022/01/28 11:42:48;;;;;;;;;34.00;30.25;;;;;8.72;69.98;103000.41;5037882;28;45412;-55
2022/01/28 11:45:14;;;;;;;;;38.00;32.75;;;;;8.75;70.25;102999.56;5038875;28;45343;-49
2022/01/28 11:47:52;;;;;;;;;32.50;29.25;;;;;8.68;69.65;102993.38;5036050;28;45341;-51
2022/01/28 11:50:21;;;;;;;;;29.50;23.75;;;;;8.69;69.53;102989.88;5038982;28;45427;-51
2022/01/28 11:52:55;;;;;;;;;25.50;22.00;;;;;8.62;69.15;102975.84;5038457;28;46259;-50
2022/01/28 11:55:21;;;;;;;;;33.00;27.50;;;;;8.68;69.57;102988.13;5035812;28;45479;-50
2022/01/28 11:58:11;;;;;;;;;26.00;20.75;;;;;8.70;69.14;102978.50;5068022;28;45476;-52
2022/01/28 12:00:44;;;;;;;;;24.00;22.50;;;;;8.63;68.63;102967.09;5037941;28;45417;-50
2022/01/28 12:03:17;;;;;;;;;23.25;22.00;;;;;8.67;68.93;102972.34;5035741;28;45470;-57
2022/01/28 12:05:42;;;;;;;;;21.25;19.75;;;;;8.67;68.67;102969.75;5035666;28;45446;-52
2022/01/28 12:08:10;;;;;;;;;25.00;23.75;;;;;8.71;68.79;102951.44;5035649;28;45450;-53
2022/01/28 12:10:42;;;;;;;;;26.00;21.00;;;;;8.76;68.29;102944.50;5049133;28;45490;-55
2022/01/28 12:13:12;;;;;;;;;24.00;24.00;;;;;8.74;68.09;102947.97;5035645;28;46146;-49
2022/01/28 12:15:58;;;;;;;;;33.25;24.00;;;;;8.75;68.24;102947.09;5050762;28;45541;-54
2022/01/28 12:18:24;;;;;;;;;25.25;25.25;;;;;8.74;68.26;102934.84;5035629;28;45626;-50
2022/01/28 12:20:50;;;;;;;;;27.00;23.25;;;;;8.76;67.46;102952.34;5035559;28;45458;-54
2022/01/28 12:23:18;;;;;;;;;23.00;21.00;;;;;8.77;67.91;102950.59;5035512;28;46139;-55
2022/01/28 12:25:43;;;;;;;;;23.75;23.75;;;;;8.79;67.70;102947.13;5035621;28;45378;-51
2022/01/28 12:28:19;;;;;;;;;28.75;25.50;;;;;8.81;68.10;102934.94;5035289;28;45435;-53
2022/01/28 12:30:47;;;;;;;;;25.75;21.25;;;;;8.77;67.54;102919.13;5067806;28;45546;-53
2022/01/28 12:33:14;;;;;;;;;27.75;25.25;;;;;8.77;68.39;102921.75;5035464;28;47177;-49
2022/01/28 12:35:41;;;;;;;;;34.50;28.25;;;;;8.68;67.98;102898.94;5035874;28;45458;-48
2022/01/28 12:38:08;;;;;;;;;30.00;25.75;;;;;8.65;68.20;102890.13;5035532;28;45523;-50
2022/01/28 12:40:40;;;;;;;;;29.50;28.25;;;;;8.72;68.52;102902.47;5051401;28;45581;-50
2022/01/28 12:43:06;;;;;;;;;26.00;24.75;;;;;8.75;68.44;102903.34;5035805;28;45418;-53
2022/01/28 12:45:32;;;;;;;;;33.00;33.00;;;;;8.61;68.36;102878.75;5036020;28;45414;-48
2022/01/28 12:47:59;;;;;;;;;25.75;23.50;;;;;8.78;68.20;102919.13;5035993;28;45390;-49
2022/01/28 12:50:25;;;;;;;;;26.75;23.75;;;;;8.80;68.10;102920.03;5035895;28;45347;-52
2022/01/28 12:52:51;;;;;;;;;27.50;23.50;;;;;8.75;67.83;102920.84;5035773;28;46243;-51
2022/01/28 12:55:17;;;;;;;;;30.00;27.50;;;;;8.78;68.09;102921.75;5035877;28;45904;-50
2022/01/28 12:57:45;;;;;;;;;25.25;24.25;;;;;8.78;67.38;102916.50;5034480;28;45363;-50
2022/01/28 13:00:12;;;;;;;;;25.00;23.00;;;;;8.75;67.58;102912.97;5035795;28;45437;-50
2022/01/28 13:02:37;;;;;;;;;30.25;26.25;;;;;8.80;67.50;102919.16;5035664;28;47391;-50
2022/01/28 13:10:31;;;;;;;;;29.00;25.75;;;;;8.82;67.30;102917.44;5035489;28;45383;-51
2022/01/28 13:13:05;;;;;;;;;25.00;24.75;;;;;8.79;67.45;102909.53;5035278;28;45519;-51
2022/01/28 13:15:30;;;;;;;;;29.25;24.00;;;;;8.80;67.33;102912.16;5035550;28;45458;-51
2022/01/28 13:17:59;;;;;;;;;23.50;23.50;;;;;8.81;67.24;102910.41;5035726;28;45630;-51
2022/01/28 13:20:33;;;;;;;;;30.25;25.00;;;;;8.81;67.23;102923.53;5035680;28;45339;-48
2022/01/28 13:22:59;;;;;;;;;31.50;30.75;;;;;8.81;67.21;102911.31;5050635;28;45424;-49
2022/01/28 13:25:28;;;;;;;;;28.50;24.75;;;;;8.75;66.90;102913.84;5035158;28;45394;-50
2022/01/28 13:27:59;;;;;;;;;33.00;28.25;;;;;8.77;67.42;102924.38;5035455;28;45521;-49
2022/01/28 13:30:26;;;;;;;;;24.25;22.50;;;;;8.77;67.05;102916.50;5035318;28;45423;-51
2022/01/28 13:32:53;;;;;;;;;25.75;23.00;;;;;8.79;67.60;102920.91;5035090;28;45447;-50
2022/01/28 13:35:22;;;;;;;;;24.75;22.75;;;;;8.73;67.09;102923.47;5035111;28;45430;-51
2022/01/28 13:37:51;;;;;;;;;28.00;23.00;;;;;8.73;66.54;102912.06;5035426;28;45455;-52
2022/01/28 13:40:31;;;;;;;;;28.75;22.75;;;;;8.74;66.96;102909.47;5035099;28;45482;-48
2022/01/28 13:43:03;;;;;;;;;32.00;27.50;;;;;8.75;66.99;102907.72;5050301;28;45699;-52
2022/01/28 13:45:29;;;;;;;;;28.75;25.25;;;;;8.76;67.25;102905.13;5038344;28;45415;-52
2022/01/28 13:47:55;;;;;;;;;27.50;26.00;;;;;8.76;67.26;102901.63;5054770;28;45482;-48
2022/01/28 13:50:51;;;;;;;;;31.50;29.25;;;;;8.77;67.27;102903.38;5057516;28;45846;-52
2022/01/28 13:55:59;;;;;;;;;27.75;25.00;;;;;8.77;67.42;102892.88;5058590;28;45464;-50
2022/01/28 13:58:24;;;;;;;;;32.50;24.75;;;;;8.76;67.12;102896.38;5058521;28;45416;-47
2022/01/28 14:00:51;;;;;;;;;29.00;27.25;;;;;8.74;67.16;102898.13;5058538;28;45505;-52
2022/01/28 14:03:22;;;;;;;;;27.75;23.50;;;;;8.72;67.06;102890.22;5057419;28;45521;-49
2022/01/28 14:05:55;;;;;;;;;23.25;21.75;;;;;8.75;67.04;102886.75;5057772;28;45355;-50
2022/01/28 14:08:40;;;;;;;;;24.50;23.50;;;;;8.78;67.44;102879.75;5057973;28;45527;-49
2022/01/28 14:11:31;;;;;;;;;20.25;19.00;;;;;8.84;67.03;102879.84;5057007;28;45695;-50
2022/01/28 14:14:15;;;;;;;;;27.75;23.75;;;;;8.81;66.64;102884.16;5055357;28;45501;-50
2022/01/28 14:17:02;;;;;;;;;24.00;23.25;;;;;8.76;66.91;102892.00;5057696;28;45488;-52
2022/01/28 14:19:30;;;;;;;;;24.00;23.25;;;;;8.78;66.87;102886.75;5057659;28;45481;-51
2022/01/28 14:21:56;;;;;;;;;26.50;24.75;;;;;8.77;66.90;102879.78;5058031;28;45528;-51
2022/01/28 14:24:26;;;;;;;;;25.75;23.00;;;;;8.79;66.94;102880.66;5057593;28;45673;-53
2022/01/28 14:32:10;;;;;;;;;24.75;22.50;;;;;8.74;66.51;102878.00;5057857;28;45422;-52
2022/01/28 14:34:37;;;;;;;;;26.75;23.75;;;;;8.77;66.99;102885.03;5057404;28;45407;-50
2022/01/28 14:37:03;;;;;;;;;26.50;23.00;;;;;8.72;66.62;102881.47;5057536;28;45397;-52
2022/01/28 14:39:31;;;;;;;;;28.25;23.00;;;;;8.66;66.31;102870.94;5057794;28;45507;-50
2022/01/28 14:42:01;;;;;;;;;29.25;25.00;;;;;8.73;67.60;102871.00;5057602;28;45377;-51
2022/01/28 14:44:28;;;;;;;;;29.00;25.75;;;;;8.71;66.86;102866.59;5057148;28;46835;-51
2022/01/28 14:46:53;;;;;;;;;17.50;17.50;;;;;8.75;67.13;102868.38;5057218;28;45425;-52
2022/01/28 14:49:18;;;;;;;;;28.50;24.25;;;;;8.73;66.93;102862.22;5057321;28;45457;-46
2022/01/28 14:51:51;;;;;;;;;23.50;23.25;;;;;8.80;66.98;102864.06;5057684;28;45379;-51
2022/01/28 14:54:16;;;;;;;;;34.00;27.25;;;;;8.79;66.63;102855.31;5073090;28;46297;-51
2022/01/28 14:56:41;;;;;;;;;33.25;33.25;;;;;8.78;67.03;102848.28;5056848;28;45542;-54
2022/01/28 14:59:07;;;;;;;;;29.50;25.25;;;;;8.78;66.39;102848.28;5054471;28;45551;-48
2022/01/28 15:01:32;;;;;;;;;25.75;24.00;;;;;8.79;67.15;102850.06;5056736;28;45572;-52
2022/01/28 15:03:58;;;;;;;;;29.25;25.25;;;;;8.78;66.82;102837.78;5056705;28;45497;-49
2022/01/28 15:06:24;;;;;;;;;25.75;24.25;;;;;8.75;66.97;102836.91;5057021;28;45545;-50
2022/01/28 15:08:50;;;;;;;;;29.50;27.75;;;;;8.71;67.47;102832.50;5056976;28;45442;-50
2022/01/28 15:11:23;;;;;;;;;24.50;24.00;;;;;8.80;67.16;102845.69;5057174;28;45487;-51
2022/01/28 15:13:49;;;;;;;;;25.00;23.75;;;;;8.82;67.41;102838.72;5056160;28;46794;-52
2022/01/28 15:16:17;;;;;;;;;29.25;24.75;;;;;8.81;66.99;102842.19;5056465;28;45378;-49
2022/01/28 15:18:44;;;;;;;;;22.50;22.50;;;;;8.82;66.81;102847.47;5057357;28;45453;-52
2022/01/28 15:21:09;;;;;;;;;27.25;23.25;;;;;8.77;66.60;102843.91;5054253;28;45538;-50
2022/01/28 15:23:35;;;;;;;;;22.00;20.50;;;;;8.80;66.59;102862.31;5056714;28;46989;-50
2022/01/28 15:26:00;;;;;;;;;25.00;23.75;;;;;8.73;66.08;102841.25;5056665;28;45470;-49
2022/01/28 15:28:26;;;;;;;;;22.75;19.50;;;;;8.75;66.23;102852.63;5056539;28;45988;-48
2022/01/28 15:36:20;;;;;;;;;18.50;16.50;;;;;8.71;66.26;102857.00;5056099;28;45581;-52
2022/01/28 15:38:45;;;;;;;;;22.75;19.00;;;;;8.71;66.27;102843.88;5056684;28;45490;-50
2022/01/28 15:41:12;;;;;;;;;19.50;19.50;;;;;8.70;65.95;102834.22;5054797;28;45422;-50
2022/01/28 15:43:38;;;;;;;;;24.50;19.50;;;;;8.75;65.51;102832.50;5056758;28;45486;-52
2022/01/28 15:46:05;;;;;;;;;19.50;18.00;;;;;8.76;66.31;102825.56;5056135;28;45518;-50
2022/01/28 15:48:31;;;;;;;;;25.50;21.75;;;;;8.76;65.51;102823.81;5056962;28;45417;-51
2022/01/28 15:50:57;;;;;;;;;19.00;19.00;;;;;8.75;65.77;102822.03;5056510;28;45362;-52
2022/01/28 15:53:23;;;;;;;;;26.75;24.00;;;;;8.80;66.29;102827.31;5055641;28;45533;-50
2022/01/28 15:55:49;;;;;;;;;28.25;26.00;;;;;8.83;66.73;102824.72;5055716;27;45624;-57
2022/01/28 15:58:15;;;;;;;;;24.50;23.50;;;;;8.81;66.61;102819.47;5055974;28;45544;-50
2022/01/28 16:00:42;;;;;;;;;26.25;25.75;;;;;8.81;66.63;102823.81;5055180;28;45587;-52
2022/01/28 16:03:07;;;;;;;;;28.75;24.50;;;;;8.77;67.06;102819.44;5056288;28;46620;-49
2022/01/28 16:05:33;;;;;;;;;22.25;18.50;;;;;8.68;67.07;102807.13;5056895;28;45508;-51
2022/01/28 16:07:58;;;;;;;;;36.50;32.25;;;;;8.73;66.53;102829.03;5056535;27;45501;-52
2022/01/28 16:10:37;;;;;;;;;35.75;31.50;;;;;8.63;67.08;102814.06;5056215;28;45602;-49
2022/01/28 16:13:14;;;;;;;;;29.75;28.50;;;;;8.65;67.57;102814.06;5054045;28;45658;-47
2022/01/28 16:18:26;;;;;;;;;33.75;31.00;;;;;8.59;67.59;102825.38;5035164;28;45426;-50
2022/01/28 16:20:52;;;;;;;;;36.50;34.00;;;;;8.53;67.59;102822.72;5072040;27;45612;-48
2022/01/28 16:23:18;;;;;;;;;29.25;27.75;;;;;8.47;67.93;102822.69;5056159;28;45530;-48
2022/01/28 16:25:44;;;;;;;;;30.00;30.00;;;;;8.45;67.87;102822.66;5056417;28;45379;-47
2022/01/28 16:28:09;;;;;;;;;28.50;26.25;;;;;8.47;68.25;102833.16;5056327;28;45300;-48
2022/01/28 16:30:36;;;;;;;;;32.00;29.00;;;;;8.52;68.14;102829.72;5055946;28;45650;-50
2022/01/28 16:33:01;;;;;;;;;33.00;28.75;;;;;8.55;68.14;102834.13;5037803;28;46257;-50
2022/01/28 16:35:27;;;;;;;;;25.25;23.25;;;;;8.54;68.16;102833.25;5071356;28;45665;-49
2022/01/28 16:37:52;;;;;;;;;36.75;33.00;;;;;8.51;68.11;102834.94;5055762;28;45350;-51
2022/01/28 16:40:18;;;;;;;;;36.25;32.75;;;;;8.47;68.46;102831.41;5055909;28;45501;-49
2022/01/28 16:42:54;;;;;;;;;34.00;32.00;;;;;8.50;68.66;102831.44;5055805;28;46647;-50
2022/01/28 16:45:20;;;;;;;;;32.00;31.75;;;;;8.47;68.66;102836.66;5071384;27;45461;-50
2022/01/28 16:47:46;;;;;;;;;35.00;32.75;;;;;8.45;68.29;102838.38;5055991;28;45413;-51
2022/01/28 16:50:11;;;;;;;;;38.25;30.75;;;;;8.47;68.86;102839.28;5056182;28;45360;-47
2022/01/28 16:52:37;;;;;;;;;34.50;32.00;;;;;8.50;68.22;102843.69;5055822;28;46192;-51
2022/01/28 16:55:08;;;;;;;;;37.00;34.25;;;;;8.51;68.05;102838.44;5055669;28;45977;-51
2022/01/28 16:57:34;;;;;;;;;36.00;33.50;;;;;8.47;68.71;102838.41;5056155;28;45514;-51
2022/01/28 17:00:01;;;;;;;;;41.00;37.25;;;;;8.44;68.90;102849.75;5055985;28;45528;-51
2022/01/28 17:02:26;;;;;;;;;35.50;32.25;;;;;8.45;68.91;102861.97;5055768;28;45525;-48
2022/01/28 17:04:51;;;;;;;;;38.75;36.75;;;;;8.44;68.46;102867.22;5055745;27;45414;-51
2022/01/28 17:07:17;;;;;;;;;49.25;39.00;;;;;8.37;68.94;102864.50;5055834;28;45533;-48
2022/01/28 17:09:51;;;;;;;;;40.00;37.50;;;;;8.38;68.77;102867.97;5055875;28;45366;-51
2022/01/28 17:14:51;;;;;;;;;44.50;39.00;;;;;8.38;68.57;102878.47;5055845;28;45400;-51